logo dgac
Martes 23 de Julio del 2019
Buscar por aerodromo o helipuerto
Ingrese nombre de aeródromo, localidad o designador OACI:
METAR del 22-07-2019 a las 22:00 UTC
METAR SCMK 222200Z 26005KT 9999 SCT030 07/03 Q1024
Viento: dirección 260 grados, velocidad 5 nudos
Visibilidad: 10 km o más
Nubes: Nubosidad parcial a 3000 pies sobre el nivel del aeródromo
Temperatura: 7 °C
Rocío: 3 °C
Humedad_relativa: 76%
Presión: 1024 hPa
METAR del 22-07-2019 a las 21:00 UTC
METAR SCMK 222100Z 25005KT 9999 -RA SCT030 08/04 Q1024
Viento: dirección 250 grados, velocidad 5 nudos
Visibilidad: 10 km o más
Débil Lluvia
Nubes: Nubosidad parcial a 3000 pies sobre el nivel del aeródromo
Temperatura: 8 °C
Rocío: 4 °C
Humedad_relativa: 76%
Presión: 1024 hPa
METAR del 22-07-2019 a las 20:00 UTC
METAR SCMK 222000Z 24005KT 9999 FEW040 08/04 Q1023
Viento: dirección 240 grados, velocidad 5 nudos
Visibilidad: 10 km o más
Nubes: Escasa nubosidad a 4000 pies sobre el nivel del aeródromo
Temperatura: 8 °C
Rocío: 4 °C
Humedad_relativa: 76%
Presión: 1023 hPa
METAR del 22-07-2019 a las 20:00 UTC
METAR SCMK 222000Z 24005KT 9999 FEW040 08/04 Q1023
Viento: dirección 240 grados, velocidad 5 nudos
Visibilidad: 10 km o más
Nubes: Escasa nubosidad a 4000 pies sobre el nivel del aeródromo
Temperatura: 8 °C
Rocío: 4 °C
Humedad_relativa: 76%
Presión: 1023 hPa
METAR del 22-07-2019 a las 19:00 UTC
METAR SCMK 221900Z 25008KT 9999 SCT030 09/03 Q1023
Viento: dirección 250 grados, velocidad 8 nudos
Visibilidad: 10 km o más
Nubes: Nubosidad parcial a 3000 pies sobre el nivel del aeródromo
Temperatura: 9 °C
Rocío: 3 °C
Humedad_relativa: 66%
Presión: 1023 hPa
METAR del 22-07-2019 a las 18:00 UTC
METAR SCMK 221800Z 24007KT 9999 SCT040 08/04 Q1023
Viento: dirección 240 grados, velocidad 7 nudos
Visibilidad: 10 km o más
Nubes: Nubosidad parcial a 4000 pies sobre el nivel del aeródromo
Temperatura: 8 °C
Rocío: 4 °C
Humedad_relativa: 76%
Presión: 1023 hPa
METAR del 22-07-2019 a las 17:00 UTC
METAR SCMK 221700Z VRB03KT 9999 FEW030 09/03 Q1023
Viento: dirección variable, velocidad 3 nudos
Visibilidad: 10 km o más
Nubes: Escasa nubosidad a 3000 pies sobre el nivel del aeródromo
Temperatura: 9 °C
Rocío: 3 °C
Humedad_relativa: 66%
Presión: 1023 hPa
METAR del 22-07-2019 a las 16:00 UTC
METAR SCMK 221600Z 23004KT 9999 SCT030 08/04 Q1023
Viento: dirección 230 grados, velocidad 4 nudos
Visibilidad: 10 km o más
Nubes: Nubosidad parcial a 3000 pies sobre el nivel del aeródromo
Temperatura: 8 °C
Rocío: 4 °C
Humedad_relativa: 76%
Presión: 1023 hPa
METAR del 22-07-2019 a las 15:00 UTC
METAR SCMK 221500Z VRB03KT CAVOK 08/04 Q1023
Viento: dirección variable, velocidad 3 nudos
Visibilidad: 10 km o más,
    sin nubes bajo los 5.000 pies o bajo del MSA (Mínimo de Seguridad del Aeródromo),
    sin cumulonimbus, y sin fenómenos de tiempo significativo en el aeródromo o alrededores
Temperatura: 8 °C
Rocío: 4 °C
Humedad_relativa: 76%
Presión: 1023 hPa
METAR del 22-07-2019 a las 14:00 UTC
METAR SCMK 221400Z VRB03KT 9999 FEW040 07/04 Q1022
Viento: dirección variable, velocidad 3 nudos
Visibilidad: 10 km o más
Nubes: Escasa nubosidad a 4000 pies sobre el nivel del aeródromo
Temperatura: 7 °C
Rocío: 4 °C
Humedad_relativa: 81%
Presión: 1022 hPa